ACT        NSW        VIC        QLD        SA        WA        TAS        NT        INFO        CALC            by VK5ZD

  Atmospheric Gas Attenuation - ITU Rec 676-11   --------------- db/100km ---------------
Station Date Time Temp RH % AH g/m3 Dew Point Wind Direction Speed kph Gust kph Barometer mB Rainfall Since 9am 24GHz 47GHz 76GHz 122GHz 134GHz 241GHz
Adelaide (West Terrace / Ngayirdapira) 27 01:20 14.7 67 8.44 8.6 6 6 1012.3 0 19.2 25.3 38.7 101.5 95.1 327.1
Adelaide Airport 27 01:20 15.9 67 9.07 9.8 9 11 1012.4 0 20.5 26.0 40.6 106.6 101.8 350.7
Cape Borda 27 01:20 12.5 79 8.69 9 20 24 1013.4 0 19.8 26.4 40.8 107.2 101.3 348.4
Cape Jaffa 27 01:20 10.9 77 7.66 7 11 15 1013.1 0 17.7 25.2 37.4 98.1 89.5 306.8
Cape Willoughby 27 01:20 16.4 74 10.33 11.7 24 26 1013.1 0 23.2 27.9 45.4 119.5 117.9 407.0
Ceduna 27 01:20 15 85 10.9 12.5 9 9 1012.1 0 24.5 29.3 48.6 128.0 127.9 441.9
Clare 27 01:20 14.9 52 6.63 5.1 9 11 1010.7 0 15.4 22.5 31.7 82.7 72.1 246.7
Cleve Airport 27 01:20 14.4 80 9.89 11 11 13 1012.2 0 22.3 27.8 44.7 117.6 114.8 396.1
Coober Pedy Airport 27 01:20 21.5 30 5.66 3.2 15 15 1009 0 13.1 19.6 26.0 67.6 55.9 190.2
Coonawarra 27 01:20 10.2 79 7.52 6.8 9 11 1014 0.2 17.4 25.2 37.2 97.5 88.5 303.2
Cultana (Defence) 27 01:20 17.8 74 11.23 13.1 19 20 1013.1 0 25.0 29.0 48.3 127.3 127.9 442.2
Cummins Airport 27 01:20 14.4 88 10.88 12.4 13 15 1012.6 0 24.4 29.5 48.9 128.8 128.7 444.5
Edinburgh 27 01:20 15.2 59 7.66 7.2 7 7 1012.3 0 17.5 24.0 35.4 92.8 84.6 290.4
Edithburgh 27 01:20 16.7 71 10.09 11.4 20 22 1013.1 0 22.6 27.4 44.3 116.4 114.2 394.2
Ernabella/Pukatja 27 01:20 19.6 31 5.23 2 9 9 1006.5 0 12.2 19.3 25.1 65.3 52.4 177.9
Hindmarsh Island 27 01:20 15.2 73 9.48 10.4 11 13 1013.3 0 21.4 26.9 42.6 112.0 108.2 373.1
Kadina 27 01:20 15.3 72 9.4 10.3 11 13 1011.8 0 21.2 26.7 42.2 110.8 106.9 368.4
Keith West 27 01:20 11.6 69 7.17 6.1 9 11 1013.1 0 16.6 24.2 35.2 92.0 82.3 281.7
Kingscote 27 01:20 9.8 86 7.98 7.6 7 7 1014 0.2 18.4 26.1 39.3 103.1 95.1 326.6
Kuitpo 27 01:20 11.9 88 9.32 10 17 19 1010.9 0.2 21.2 27.6 43.7 114.8 110.5 380.7
Kyancutta 26 15:00 27.2 33 8.59 9.6 4 1010.9 0 18.9 22.3 33.6 88.2 82.8 285.6
Lameroo Aws 27 01:20 12.7 69 7.68 7.3 15 17 1013.1 0 17.7 24.7 36.7 96.1 87.7 300.8
Leigh Creek 27 01:20 18.1 34 5.25 2 13 13 1009.6 0 12.3 19.7 25.7 66.9 53.7 182.4
Loxton 27 01:20 15.4 60 7.88 7.8 9 11 1012.3 0 18.0 24.3 36.2 94.8 87.1 299.3
Marree Airport 27 01:20 20.7 26 4.68 0.5 13 13 1010.1 0 11.1 18.5 23.1 60.0 46.1 155.9
Minlaton Airport 27 01:20 13.5 78 9.12 9.7 15 15 1013 0 20.7 26.8 42.1 110.5 105.7 364.1
Minnipa Rs 27 01:20 16.1 69 9.46 10.4 22 28 1011.6 0 21.3 26.5 42.0 110.3 106.6 367.4
Moomba Airport 27 01:20 23 23 4.73 0.8 13 17 1008.4 0 11.1 18.1 22.6 58.7 45.3 153.2
Mount Crawford 27 01:20 10.9 82 8.16 8 24 30 1010.6 0 18.8 25.9 39.3 103.2 96.0 329.6
Mount Gambier 27 01:20 9.5 84 7.65 6.9 7 7 1014.7 0 17.8 25.6 38.1 99.9 91.1 312.3
Mount Lofty 27 01:20 9.7 96 8.85 9.1 9 13 1013.1 0.4 20.3 27.5 43.0 112.9 107.3 369.0
Naracoorte 27 01:20 8.9 82 7.19 6 9 11 1013.6 0.2 16.8 25.0 36.5 95.5 85.5 292.6
Noarlunga 27 01:20 14.9 77 9.81 10.9 19 24 1013.1 0 22.1 27.5 44.1 116.0 113.1 390.0
Nullarbor 27 01:20 17.7 95 14.33 16.9 28 32 1011.5 0 31.6 34.4 61.9 163.5 172.5 597.9
Nuriootpa 27 01:20 13.4 73 8.49 8.7 9 11 1011.8 0 19.4 25.8 39.5 103.6 97.3 334.7
Oodnadatta 27 01:20 23.5 24 5.08 1.8 17 17 1008.9 0 11.8 18.4 23.6 61.2 48.6 164.8
Padthaway 27 01:20 10 79 7.43 6.5 7 9 1013.1 0.2 17.3 25.1 36.9 96.7 87.4 299.6
Pallamana 27 01:20 13.6 84 9.89 10.9 15 17 1013.4 0 22.4 28.1 45.2 118.9 116.2 400.6
Parafield 27 01:20 15.8 60 8.08 8.1 7 9 1012.2 0 18.4 24.5 36.8 96.4 89.2 306.6
Parawa West 27 01:20 12.1 90 9.65 10.5 11 13 1013.1 0 21.9 28.2 45.1 118.5 115.0 396.5
Parndana 27 01:20 10.2 81 7.71 7.1 7 7 1013.1 0 17.9 25.5 38.0 99.5 90.9 311.9
Point Avoid 27 01:20 14.6 95 11.89 13.8 15 17 1013.1 0 26.6 31.2 53.3 140.4 142.9 494.3
Port Augusta 27 01:20 19.8 58 9.91 11.3 17 19 1010.5 0 22.1 26.1 41.8 109.8 107.2 370.2
Port Lincoln Airport 27 01:20 16.6 73 10.31 11.7 20 22 1013.2 0.2 23.1 27.8 45.2 119.0 117.3 405.1
Port Pirie Airport Aws 27 01:20 16.7 64 9.09 9.9 22 24 1010.4 0 20.5 25.7 40.2 105.5 100.8 347.5
Renmark Airport 27 01:20 16.4 55 7.68 7.3 2 4 1012 0 17.5 23.7 35.0 91.6 83.6 286.8
Robe Airport 27 01:20 10.8 82 8.11 7.8 6 7 1013.1 0 18.7 26.0 39.3 103.1 95.6 328.3
Roseworthy 27 01:20 12.6 64 7.08 6 7 7 1011.7 0 16.4 23.8 34.3 89.8 80.0 273.9
Roxby Downs 27 01:20 19.8 29 4.95 1.3 13 13 1009.8 0 11.6 19.0 24.2 63.0 49.5 167.5
Snowtown 27 01:20 13.4 77 8.95 9.5 7 9 1011.7 0 20.4 26.5 41.3 108.6 103.5 356.2
Stenhouse Bay 27 01:20 15.8 65 8.75 9.2 24 26 1013.1 0 19.8 25.6 39.4 103.4 97.8 336.7
Strathalbyn 27 01:20 13.3 81 9.36 10.1 7 9 1013.2 0 21.2 27.3 43.2 113.4 109.3 376.5
Tarcoola 27 01:20 20.4 51 9.02 9.9 7 7 1010.8 0 20.2 24.6 38.1 100.0 95.4 328.8
Whyalla 27 01:20 19.1 73 11.97 14.1 15 17 1011.6 0 26.5 29.7 50.5 133.2 135.7 469.5
Woomera 27 01:20 19.7 28 4.75 0.7 11 11 1010.1 0 11.2 18.8 23.6 61.4 47.4 160.4
Wudinna Airport 27 01:20 16.5 72 10.11 11.4 9 11 1012 0 22.7 27.5 44.4 116.8 114.7 395.8
Yunta 27 01:20 17.9 43 6.56 5.4 0 0 1013.1 0 15.1 21.7 30.4 79.3 68.8 235.3

Last Refresh: 27-Feb-2021 01:37:35

The information presented on this site is sourced from the Bureau of Meteorology.  Copyright in all material sourced from the Bureau of Meteorology resides with the Commonwealth of Australia.